Time;durP1;ratioP1;P1;durP2;ratioP2;P2;SDS_P1;SDS_P2;PMS_P1;PMS_P2;Temp;Humidity;BMP_temperature;BMP_pressure;BME280_temperature;BME280_humidity;BME280_pressure;Samples;Min_cycle;Max_cycle;Signal;HPM_P1;HPM_P2
2024/01/23 00:00:12;;;;;;;4.67;1.63;;;;;;;;;;5002821;28;89660;-64
2024/01/23 00:02:40;;;;;;;4.53;1.80;;;;;;;;;;5002826;28;89132;-64
2024/01/23 00:05:08;;;;;;;2.83;1.77;;;;;;;;;;5002954;28;88843;-63
2024/01/23 00:07:37;;;;;;;2.30;1.80;;;;;;;;;;5010085;28;88066;-64
2024/01/23 00:10:07;;;;;;;4.17;1.77;;;;;;;;;;5013257;28;90538;-63
2024/01/23 00:12:36;;;;;;;3.13;1.50;;;;;;;;;;5020326;28;89182;-64
2024/01/23 00:15:04;;;;;;;6.83;1.10;;;;;;;;;;5020005;28;88659;-64
2024/01/23 00:17:33;;;;;;;3.83;1.30;;;;;;;;;;5020468;28;88890;-63
2024/01/23 00:20:01;;;;;;;2.70;1.80;;;;;;;;;;5018388;28;89742;-64
2024/01/23 00:22:29;;;;;;;4.63;1.47;;;;;;;;;;5018045;28;89138;-64
2024/01/23 00:24:58;;;;;;;4.73;2.30;;;;;;;;;;5021452;28;88802;-64
2024/01/23 00:27:28;;;;;;;4.93;1.50;;;;;;;;;;5011541;28;87415;-65
2024/01/23 00:29:56;;;;;;;1.47;1.37;;;;;;;;;;5022421;28;89303;-65
2024/01/23 00:32:30;;;;;;;5.03;1.40;;;;;;;;;;5021910;28;90268;-65
2024/01/23 00:34:58;;;;;;;2.93;1.53;;;;;;;;;;5022449;28;89713;-65
2024/01/23 00:37:27;;;;;;;1.63;1.30;;;;;;;;;;5022702;28;87645;-65
2024/01/23 00:39:55;;;;;;;3.47;1.30;;;;;;;;;;5021918;28;89700;-65
2024/01/23 00:42:24;;;;;;;4.27;1.57;;;;;;;;;;5021776;28;89208;-65
2024/01/23 00:44:54;;;;;;;3.50;1.77;;;;;;;;;;5022340;28;88858;-65
2024/01/23 00:47:22;;;;;;;2.57;1.30;;;;;;;;;;5022701;28;87491;-65
2024/01/23 00:49:51;;;;;;;3.90;1.67;;;;;;;;;;5022279;28;89637;-65
2024/01/23 00:52:19;;;;;;;2.03;1.70;;;;;;;;;;5022038;28;88327;-65
2024/01/23 00:54:47;;;;;;;2.63;1.90;;;;;;;;;;5021392;28;88766;-65
2024/01/23 00:57:16;;;;;;;2.70;1.40;;;;;;;;;;5020485;28;88142;-65
2024/01/23 00:59:44;;;;;;;4.83;2.30;;;;;;;;;;5021752;28;89607;-65
2024/01/23 01:02:14;;;;;;;3.27;2.13;;;;;;;;;;5021862;28;89049;-65
2024/01/23 01:04:46;;;;;;;4.33;2.70;;;;;;;;;;5021681;28;87719;-65
2024/01/23 01:07:15;;;;;;;3.63;2.33;;;;;;;;;;5022200;28;87207;-65
2024/01/23 01:09:43;;;;;;;4.33;1.77;;;;;;;;;;5021685;28;89790;-65
2024/01/23 01:12:11;;;;;;;6.40;2.30;;;;;;;;;;5021539;28;89046;-65
2024/01/23 01:14:39;;;;;;;3.90;2.50;;;;;;;;;;5021631;28;88816;-65
2024/01/23 01:17:08;;;;;;;3.27;1.90;;;;;;;;;;5020542;28;87742;-65
2024/01/23 01:19:37;;;;;;;8.23;1.80;;;;;;;;;;5021618;28;89609;-65
2024/01/23 01:22:06;;;;;;;2.13;1.73;;;;;;;;;;5021001;28;90013;-65
2024/01/23 01:24:35;;;;;;;2.10;1.67;;;;;;;;;;5021197;28;90109;-65
2024/01/23 01:27:04;;;;;;;5.60;2.63;;;;;;;;;;5021688;28;87307;-65
2024/01/23 01:29:32;;;;;;;6.20;2.03;;;;;;;;;;5021596;28;88528;-65
2024/01/23 01:32:00;;;;;;;3.23;2.27;;;;;;;;;;5021585;28;89107;-65
2024/01/23 01:34:28;;;;;;;3.97;2.27;;;;;;;;;;5021226;28;89070;-65
2024/01/23 01:36:58;;;;;;;3.53;2.00;;;;;;;;;;5021544;28;87631;-65
2024/01/23 01:39:27;;;;;;;5.20;2.03;;;;;;;;;;5021581;28;88641;-65
2024/01/23 01:41:56;;;;;;;2.67;2.20;;;;;;;;;;5021477;28;89163;-65
2024/01/23 01:44:24;;;;;;;2.37;1.57;;;;;;;;;;5021401;28;87594;-65
2024/01/23 01:46:52;;;;;;;4.77;2.10;;;;;;;;;;5020923;28;87989;-65
2024/01/23 01:49:21;;;;;;;3.73;2.30;;;;;;;;;;5021215;28;89826;-65
2024/01/23 01:51:49;;;;;;;1.93;1.70;;;;;;;;;;5016549;28;89164;-65
2024/01/23 01:54:19;;;;;;;3.00;2.10;;;;;;;;;;5021155;28;88789;-65
2024/01/23 01:56:47;;;;;;;4.07;2.20;;;;;;;;;;5020630;28;87529;-65
2024/01/23 01:59:18;;;;;;;4.87;2.03;;;;;;;;;;5021163;28;88587;-65
2024/01/23 02:01:46;;;;;;;2.83;1.67;;;;;;;;;;5021145;28;89456;-65
2024/01/23 02:04:15;;;;;;;2.50;1.50;;;;;;;;;;5021105;28;88863;-65
2024/01/23 02:06:43;;;;;;;3.37;2.03;;;;;;;;;;5020501;28;87733;-65
2024/01/23 02:09:12;;;;;;;3.67;1.80;;;;;;;;;;5019832;28;89912;-65
2024/01/23 02:14:36;;;;;;;5.63;2.87;;;;;;;;;;5082288;27;87309;-62
2024/01/23 02:17:04;;;;;;;4.80;1.83;;;;;;;;;;5079659;27;87338;-62
2024/01/23 02:19:33;;;;;;;3.53;2.03;;;;;;;;;;5079995;27;87668;-62
2024/01/23 02:22:01;;;;;;;2.87;1.93;;;;;;;;;;5079438;27;89501;-62
2024/01/23 02:24:31;;;;;;;5.10;1.93;;;;;;;;;;5071006;27;89006;-62
2024/01/23 02:27:00;;;;;;;3.43;2.30;;;;;;;;;;5059489;27;87302;-62
2024/01/23 02:29:28;;;;;;;6.83;2.13;;;;;;;;;;5059044;27;87581;-62
2024/01/23 02:31:56;;;;;;;2.30;1.93;;;;;;;;;;5069638;27;88597;-62
2024/01/23 02:34:25;;;;;;;2.80;1.50;;;;;;;;;;5079481;27;89003;-62
2024/01/23 02:36:54;;;;;;;3.13;2.03;;;;;;;;;;5079205;27;87275;-62
2024/01/23 02:39:22;;;;;;;5.20;1.73;;;;;;;;;;5079767;27;87647;-61
2024/01/23 02:41:52;;;;;;;2.57;1.90;;;;;;;;;;5067815;27;88679;-61
2024/01/23 02:44:20;;;;;;;3.47;1.83;;;;;;;;;;5071502;27;88108;-61
2024/01/23 02:46:49;;;;;;;2.60;1.73;;;;;;;;;;5079594;27;87280;-61
2024/01/23 02:49:17;;;;;;;2.13;1.50;;;;;;;;;;5079114;27;87617;-61
2024/01/23 02:51:46;;;;;;;2.30;2.10;;;;;;;;;;5079033;27;88170;-61
2024/01/23 02:54:14;;;;;;;3.43;1.80;;;;;;;;;;5072659;27;87849;-61
2024/01/23 02:56:43;;;;;;;3.13;2.20;;;;;;;;;;5079000;27;87319;-61
2024/01/23 02:59:15;;;;;;;3.97;1.60;;;;;;;;;;5059950;27;87545;-61
2024/01/23 03:01:44;;;;;;;2.60;1.60;;;;;;;;;;5068506;27;89648;-61
2024/01/23 03:04:12;;;;;;;5.33;1.73;;;;;;;;;;5074697;27;88711;-61
2024/01/23 03:06:41;;;;;;;3.30;1.33;;;;;;;;;;5077170;27;87624;-61
2024/01/23 03:09:10;;;;;;;2.60;1.77;;;;;;;;;;5076324;27;87727;-61
2024/01/23 03:11:38;;;;;;;1.40;1.30;;;;;;;;;;5078319;27;89568;-61
2024/01/23 03:14:07;;;;;;;1.80;1.50;;;;;;;;;;5075134;27;88963;-61
2024/01/23 03:16:36;;;;;;;4.70;2.00;;;;;;;;;;5076270;27;87594;-61
2024/01/23 03:19:05;;;;;;;4.70;2.00;;;;;;;;;;5078166;27;87438;-61
2024/01/23 03:21:33;;;;;;;1.87;1.33;;;;;;;;;;5078000;27;88498;-61
2024/01/23 03:24:02;;;;;;;1.87;1.47;;;;;;;;;;5075002;27;88995;-61
2024/01/23 03:26:30;;;;;;;1.73;0.90;;;;;;;;;;5064308;27;87439;-61
2024/01/23 03:28:59;;;;;;;5.57;2.17;;;;;;;;;;5064047;27;87488;-61
2024/01/23 03:31:27;;;;;;;3.00;1.57;;;;;;;;;;5061738;27;89673;-60
2024/01/23 03:33:57;;;;;;;2.63;1.80;;;;;;;;;;5062559;27;89207;-61
2024/01/23 03:36:25;;;;;;;2.40;1.67;;;;;;;;;;5064428;27;87308;-61
2024/01/23 03:38:54;;;;;;;3.83;1.87;;;;;;;;;;5064532;27;87622;-61
2024/01/23 03:41:22;;;;;;;2.73;1.83;;;;;;;;;;5063908;27;88154;-61
2024/01/23 03:43:50;;;;;;;1.80;1.40;;;;;;;;;;5064268;27;89047;-61
2024/01/23 03:46:19;;;;;;;2.83;1.77;;;;;;;;;;5064376;27;87558;-60
2024/01/23 03:48:47;;;;;;;1.70;1.40;;;;;;;;;;5060046;27;87657;-61
2024/01/23 03:51:17;;;;;;;6.23;2.17;;;;;;;;;;5064153;27;89614;-61
2024/01/23 03:53:46;;;;;;;2.97;1.73;;;;;;;;;;5062457;27;87933;-61
2024/01/23 03:56:14;;;;;;;2.77;1.90;;;;;;;;;;5063818;27;87372;-61
2024/01/23 03:58:42;;;;;;;2.17;1.40;;;;;;;;;;5064260;27;87680;-61
2024/01/23 04:01:11;;;;;;;4.17;1.80;;;;;;;;;;5063840;27;89628;-61
2024/01/23 04:03:39;;;;;;;3.70;1.70;;;;;;;;;;5063704;27;90205;-61
2024/01/23 04:06:08;;;;;;;4.83;2.30;;;;;;;;;;5059630;27;87475;-61
2024/01/23 04:08:38;;;;;;;2.60;1.97;;;;;;;;;;5063359;27;87603;-61
2024/01/23 04:11:06;;;;;;;4.43;2.73;;;;;;;;;;5060611;27;89657;-61
2024/01/23 04:13:34;;;;;;;6.10;2.57;;;;;;;;;;5063286;27;88977;-61
2024/01/23 04:16:03;;;;;;;3.17;2.30;;;;;;;;;;5063909;27;87558;-61
2024/01/23 04:18:31;;;;;;;3.90;2.20;;;;;;;;;;5064129;27;87748;-61
2024/01/23 04:21:01;;;;;;;5.73;2.70;;;;;;;;;;5057604;27;89677;-61
2024/01/23 04:23:29;;;;;;;2.27;1.97;;;;;;;;;;5055777;27;89048;-61
2024/01/23 04:25:59;;;;;;;1.80;1.60;;;;;;;;;;5047399;27;87534;-61
2024/01/23 04:28:27;;;;;;;3.67;2.27;;;;;;;;;;5075021;27;87707;-61
2024/01/23 04:30:56;;;;;;;5.93;3.03;;;;;;;;;;5063922;27;89560;-61
2024/01/23 04:33:25;;;;;;;3.67;2.73;;;;;;;;;;5064074;27;89086;-61
2024/01/23 04:35:53;;;;;;;3.77;2.30;;;;;;;;;;5080077;27;87516;-61
2024/01/23 04:38:22;;;;;;;6.47;2.20;;;;;;;;;;5063968;27;87235;-61
2024/01/23 04:40:50;;;;;;;3.93;2.20;;;;;;;;;;5060055;27;88685;-61
2024/01/23 04:43:21;;;;;;;5.33;3.37;;;;;;;;;;5068391;27;87929;-61
2024/01/23 04:45:49;;;;;;;7.60;2.97;;;;;;;;;;5063937;27;87388;-61
2024/01/23 04:48:18;;;;;;;5.30;2.97;;;;;;;;;;5064146;27;87640;-61
2024/01/23 04:50:46;;;;;;;3.33;2.53;;;;;;;;;;5061725;27;89601;-61
2024/01/23 04:53:15;;;;;;;3.40;2.37;;;;;;;;;;5063604;27;89131;-62
2024/01/23 04:55:43;;;;;;;4.60;2.20;;;;;;;;;;5062064;27;87424;-61
2024/01/23 04:58:11;;;;;;;4.87;2.60;;;;;;;;;;5061908;27;87623;-61
2024/01/23 05:00:41;;;;;;;6.30;2.87;;;;;;;;;;5063371;27;89641;-61
2024/01/23 05:03:14;;;;;;;4.83;2.63;;;;;;;;;;5061657;27;88990;-61
2024/01/23 05:05:43;;;;;;;3.50;2.20;;;;;;;;;;5062533;27;87491;-61
2024/01/23 05:08:11;;;;;;;4.73;2.33;;;;;;;;;;5062665;27;87521;-62
2024/01/23 05:10:40;;;;;;;4.10;2.17;;;;;;;;;;5062147;27;89319;-61
2024/01/23 05:13:08;;;;;;;2.83;2.23;;;;;;;;;;5061067;27;89037;-61
2024/01/23 05:15:37;;;;;;;4.57;2.10;;;;;;;;;;5067759;27;87618;-61
2024/01/23 05:18:07;;;;;;;2.90;2.00;;;;;;;;;;5051565;27;87499;-61
2024/01/23 05:20:37;;;;;;;5.73;2.53;;;;;;;;;;5057018;27;89652;-62
2024/01/23 05:23:05;;;;;;;3.73;2.27;;;;;;;;;;5045088;27;89018;-61
2024/01/23 05:25:35;;;;;;;2.50;2.30;;;;;;;;;;5045999;27;87469;-61
2024/01/23 05:28:03;;;;;;;5.03;2.50;;;;;;;;;;5046222;27;87641;-62
2024/01/23 05:30:32;;;;;;;4.57;2.27;;;;;;;;;;5042530;27;89232;-61
2024/01/23 05:33:01;;;;;;;5.27;3.20;;;;;;;;;;5049387;27;90522;-61
2024/01/23 05:35:30;;;;;;;6.97;2.20;;;;;;;;;;5042685;28;87363;-61
2024/01/23 05:37:59;;;;;;;3.80;2.37;;;;;;;;;;5042457;27;87591;-62
2024/01/23 05:40:27;;;;;;;2.60;2.03;;;;;;;;;;5047147;27;88527;-62
2024/01/23 05:42:56;;;;;;;3.97;2.23;;;;;;;;;;5054606;27;88015;-61
2024/01/23 05:45:24;;;;;;;3.10;1.70;;;;;;;;;;5053582;27;87304;-61
2024/01/23 05:47:53;;;;;;;5.50;2.63;;;;;;;;;;5054180;27;87626;-61
2024/01/23 05:50:21;;;;;;;3.87;2.53;;;;;;;;;;5062872;27;89685;-61
2024/01/23 05:52:53;;;;;;;4.40;2.57;;;;;;;;;;5049751;27;87619;-61
2024/01/23 05:55:22;;;;;;;2.77;1.70;;;;;;;;;;5044781;27;87360;-61
2024/01/23 05:57:50;;;;;;;8.47;2.23;;;;;;;;;;5056421;27;88380;-61
2024/01/23 06:00:19;;;;;;;3.87;2.50;;;;;;;;;;5042260;27;88470;-61
2024/01/23 06:02:47;;;;;;;3.03;2.20;;;;;;;;;;5045875;27;88656;-61
2024/01/23 06:05:16;;;;;;;6.87;2.27;;;;;;;;;;5053861;27;87310;-61
2024/01/23 06:07:49;;;;;;;2.27;2.07;;;;;;;;;;5062299;27;87610;-61
2024/01/23 06:10:19;;;;;;;1.83;1.73;;;;;;;;;;5056995;27;89661;-61
2024/01/23 06:12:48;;;;;;;2.73;2.07;;;;;;;;;;5042318;27;89039;-61
2024/01/23 06:15:16;;;;;;;4.90;2.40;;;;;;;;;;5057573;27;87532;-61
2024/01/23 06:17:44;;;;;;;5.17;2.13;;;;;;;;;;5060062;27;87703;-61
2024/01/23 06:20:13;;;;;;;4.53;2.03;;;;;;;;;;5048356;27;89692;-61
2024/01/23 06:22:42;;;;;;;6.47;2.87;;;;;;;;;;5061352;27;88933;-61
2024/01/23 06:25:14;;;;;;;1.83;1.50;;;;;;;;;;5062573;27;87371;-62
2024/01/23 06:27:43;;;;;;;2.00;1.73;;;;;;;;;;5059942;27;87545;-61
2024/01/23 06:30:13;;;;;;;3.07;2.10;;;;;;;;;;5061592;27;89302;-61
2024/01/23 06:32:42;;;;;;;3.87;1.73;;;;;;;;;;5061714;27;88178;-61
2024/01/23 06:35:12;;;;;;;5.40;2.10;;;;;;;;;;5062022;27;87312;-61
2024/01/23 06:37:40;;;;;;;4.63;1.40;;;;;;;;;;5062214;27;87601;-61
2024/01/23 06:40:09;;;;;;;2.13;1.63;;;;;;;;;;5048139;27;87973;-61
2024/01/23 06:42:38;;;;;;;3.00;1.80;;;;;;;;;;5041209;28;89138;-62
2024/01/23 06:45:08;;;;;;;3.63;1.57;;;;;;;;;;5045494;27;87390;-61
2024/01/23 06:47:37;;;;;;;2.70;1.93;;;;;;;;;;5062026;27;87579;-62
2024/01/23 06:50:06;;;;;;;5.90;2.17;;;;;;;;;;5062054;27;89697;-62
2024/01/23 06:52:34;;;;;;;2.73;1.47;;;;;;;;;;5061724;27;89189;-62
2024/01/23 06:55:03;;;;;;;7.43;2.33;;;;;;;;;;5061487;27;87325;-62
2024/01/23 06:57:31;;;;;;;2.57;1.97;;;;;;;;;;5044087;27;87389;-61
2024/01/23 06:59:59;;;;;;;3.67;1.67;;;;;;;;;;5042637;27;89704;-61
2024/01/23 07:02:29;;;;;;;4.47;1.80;;;;;;;;;;5044746;27;89266;-61
2024/01/23 07:04:57;;;;;;;4.70;1.47;;;;;;;;;;5053499;27;88163;-61
2024/01/23 07:07:26;;;;;;;2.63;1.37;;;;;;;;;;5064270;27;87669;-61
2024/01/23 07:09:54;;;;;;;2.10;1.90;;;;;;;;;;5064621;27;89477;-61
2024/01/23 07:12:23;;;;;;;2.57;1.60;;;;;;;;;;5064166;27;89062;-61
2024/01/23 07:14:51;;;;;;;3.17;1.70;;;;;;;;;;5044893;27;87363;-61
2024/01/23 07:17:19;;;;;;;3.17;1.30;;;;;;;;;;5055318;27;87706;-61
2024/01/23 07:19:49;;;;;;;3.07;1.30;;;;;;;;;;5049102;27;89626;-62
2024/01/23 07:22:18;;;;;;;2.70;1.87;;;;;;;;;;5057558;27;89192;-61
2024/01/23 07:24:46;;;;;;;1.07;1.03;;;;;;;;;;5043967;27;87314;-61
2024/01/23 07:27:14;;;;;;;2.80;1.80;;;;;;;;;;5051759;27;87973;-61
2024/01/23 07:29:43;;;;;;;6.23;2.00;;;;;;;;;;5049190;27;89635;-62
2024/01/23 07:32:12;;;;;;;4.10;1.47;;;;;;;;;;5064429;27;87940;-62
2024/01/23 07:34:40;;;;;;;2.10;1.43;;;;;;;;;;5064605;27;87303;-62
2024/01/23 07:37:10;;;;;;;2.23;1.73;;;;;;;;;;5064555;27;87655;-62
2024/01/23 07:39:38;;;;;;;3.10;2.00;;;;;;;;;;5064296;27;89750;-62
2024/01/23 07:42:06;;;;;;;6.47;1.73;;;;;;;;;;5049882;27;89031;-62
2024/01/23 07:44:39;;;;;;;3.93;1.70;;;;;;;;;;5044222;28;87328;-62
2024/01/23 07:47:07;;;;;;;3.53;1.57;;;;;;;;;;5044498;27;87508;-63
2024/01/23 07:49:35;;;;;;;3.70;2.33;;;;;;;;;;5043927;27;88500;-62
2024/01/23 07:52:04;;;;;;;1.57;1.37;;;;;;;;;;5043898;27;89082;-62
2024/01/23 07:54:33;;;;;;;3.73;1.30;;;;;;;;;;5043271;27;87448;-62
2024/01/23 07:57:01;;;;;;;4.70;1.60;;;;;;;;;;5045281;27;87883;-62
2024/01/23 07:59:30;;;;;;;4.37;1.37;;;;;;;;;;5046212;27;89788;-62
2024/01/23 08:01:58;;;;;;;3.30;2.33;;;;;;;;;;5063965;27;87930;-62
2024/01/23 08:04:26;;;;;;;4.40;1.80;;;;;;;;;;5056214;27;87279;-62
2024/01/23 08:06:55;;;;;;;1.87;1.03;;;;;;;;;;5057361;27;87654;-62
2024/01/23 08:09:23;;;;;;;1.77;1.17;;;;;;;;;;5055127;27;88505;-62
2024/01/23 08:11:53;;;;;;;2.30;1.40;;;;;;;;;;5054179;27;89159;-61
2024/01/23 08:14:22;;;;;;;2.13;1.00;;;;;;;;;;5062794;27;87520;-61
2024/01/23 08:16:50;;;;;;;2.03;1.27;;;;;;;;;;5063786;27;87577;-62
2024/01/23 08:19:19;;;;;;;1.97;0.90;;;;;;;;;;5063609;27;88521;-61
2024/01/23 08:21:49;;;;;;;1.17;0.97;;;;;;;;;;5053090;27;89379;-62
2024/01/23 08:24:17;;;;;;;2.80;1.33;;;;;;;;;;5064980;27;87599;-61
2024/01/23 08:26:47;;;;;;;3.00;1.87;;;;;;;;;;5063733;27;87639;-61
2024/01/23 08:29:17;;;;;;;3.60;1.17;;;;;;;;;;5063781;27;89731;-61
2024/01/23 08:31:45;;;;;;;5.93;1.60;;;;;;;;;;5061649;27;89011;-61
2024/01/23 08:34:13;;;;;;;5.10;0.87;;;;;;;;;;5059571;27;87539;-61
2024/01/23 08:36:42;;;;;;;1.40;0.97;;;;;;;;;;5063165;27;87693;-61
2024/01/23 08:39:11;;;;;;;2.43;1.30;;;;;;;;;;5059425;27;89612;-61
2024/01/23 08:41:39;;;;;;;5.00;1.70;;;;;;;;;;5053561;27;89394;-61
2024/01/23 08:44:08;;;;;;;2.00;1.27;;;;;;;;;;5051699;27;87700;-61
2024/01/23 08:46:37;;;;;;;5.00;1.80;;;;;;;;;;5049572;27;87668;-61
2024/01/23 08:49:06;;;;;;;9.70;1.83;;;;;;;;;;5051044;27;89714;-61
2024/01/23 08:51:35;;;;;;;1.57;1.37;;;;;;;;;;5063979;27;89046;-61
2024/01/23 08:54:03;;;;;;;3.07;1.33;;;;;;;;;;5066208;27;87548;-61
2024/01/23 08:56:32;;;;;;;8.27;1.97;;;;;;;;;;5049263;27;87580;-61
2024/01/23 08:59:00;;;;;;;2.70;1.37;;;;;;;;;;5056038;27;88041;-61
2024/01/23 09:01:28;;;;;;;5.07;1.47;;;;;;;;;;5043939;27;89051;-61
2024/01/23 09:03:58;;;;;;;2.33;1.53;;;;;;;;;;5046983;27;89374;-61
2024/01/23 09:06:27;;;;;;;3.13;1.13;;;;;;;;;;5062792;27;87545;-61
2024/01/23 09:08:56;;;;;;;4.47;1.73;;;;;;;;;;5062423;27;88523;-61
2024/01/23 09:11:24;;;;;;;1.60;1.50;;;;;;;;;;5057434;27;89261;-61
2024/01/23 09:13:58;;;;;;;3.53;1.90;;;;;;;;;;5054478;27;87554;-61
2024/01/23 09:16:26;;;;;;;1.27;1.17;;;;;;;;;;5053079;27;87638;-61
2024/01/23 09:18:55;;;;;;;1.93;1.17;;;;;;;;;;5059814;27;89654;-61
2024/01/23 09:21:25;;;;;;;1.23;1.13;;;;;;;;;;5050985;27;88060;-60
2024/01/23 09:23:54;;;;;;;2.30;1.60;;;;;;;;;;5061817;27;87410;-60
2024/01/23 09:26:23;;;;;;;5.20;3.17;;;;;;;;;;5062451;27;87657;-61
2024/01/23 09:28:51;;;;;;;16.43;9.97;;;;;;;;;;5059028;27;89641;-60
2024/01/23 09:31:21;;;;;;;24.00;12.43;;;;;;;;;;5048416;27;88879;-60
2024/01/23 09:33:49;;;;;;;27.33;15.17;;;;;;;;;;5050913;27;88811;-61
2024/01/23 09:36:18;;;;;;;18.27;12.53;;;;;;;;;;5050877;27;88605;-60
2024/01/23 09:38:50;;;;;;;18.50;11.33;;;;;;;;;;5059054;27;90682;-60
2024/01/23 09:41:18;;;;;;;16.03;10.30;;;;;;;;;;5061695;27;87891;-61
2024/01/23 09:43:47;;;;;;;16.43;7.60;;;;;;;;;;5061987;27;87288;-60
2024/01/23 09:46:15;;;;;;;11.37;7.43;;;;;;;;;;5056281;27;87651;-60
2024/01/23 09:48:45;;;;;;;14.27;8.33;;;;;;;;;;5041983;27;88527;-60
2024/01/23 09:51:14;;;;;;;13.83;8.67;;;;;;;;;;5057441;27;89670;-61
2024/01/23 09:53:43;;;;;;;12.20;6.83;;;;;;;;;;5060468;27;87551;-60
2024/01/23 09:56:13;;;;;;;10.10;6.53;;;;;;;;;;5060784;27;87463;-61
2024/01/23 09:58:41;;;;;;;6.30;5.37;;;;;;;;;;5061867;27;89423;-61
2024/01/23 10:01:10;;;;;;;8.83;5.87;;;;;;;;;;5061882;27;89048;-61
2024/01/23 10:03:38;;;;;;;7.13;5.40;;;;;;;;;;5052237;27;87462;-61
2024/01/23 10:06:07;;;;;;;8.73;5.00;;;;;;;;;;5047561;27;87618;-61
2024/01/23 10:08:35;;;;;;;5.37;3.70;;;;;;;;;;5062207;27;88531;-61
2024/01/23 10:11:04;;;;;;;8.17;4.67;;;;;;;;;;5061918;27;89076;-61
2024/01/23 10:13:34;;;;;;;6.17;3.77;;;;;;;;;;5061833;27;87433;-61
2024/01/23 10:16:02;;;;;;;6.03;3.73;;;;;;;;;;5062112;27;87586;-60
2024/01/23 10:18:30;;;;;;;4.77;2.90;;;;;;;;;;5061844;27;89572;-62
2024/01/23 10:20:59;;;;;;;3.90;3.30;;;;;;;;;;5048761;27;89005;-61
2024/01/23 10:23:27;;;;;;;4.60;3.27;;;;;;;;;;5041420;27;87299;-61
2024/01/23 10:25:59;;;;;;;5.83;3.63;;;;;;;;;;5041019;27;87556;-61
2024/01/23 10:28:27;;;;;;;3.90;2.83;;;;;;;;;;5041420;27;87527;-61
2024/01/23 10:30:58;;;;;;;3.03;2.30;;;;;;;;;;5041604;27;89110;-61
2024/01/23 10:33:26;;;;;;;4.10;3.13;;;;;;;;;;5041593;27;87351;-61
2024/01/23 10:35:55;;;;;;;5.97;2.37;;;;;;;;;;5056186;27;87650;-61
2024/01/23 10:38:24;;;;;;;3.30;2.07;;;;;;;;;;5060560;27;89954;-61
2024/01/23 10:40:52;;;;;;;4.97;2.60;;;;;;;;;;5053092;27;88974;-61
2024/01/23 10:43:20;;;;;;;4.03;2.23;;;;;;;;;;5065263;27;87453;-61
2024/01/23 10:45:49;;;;;;;2.23;1.87;;;;;;;;;;5065164;27;87607;-61
2024/01/23 10:48:19;;;;;;;4.17;2.10;;;;;;;;;;5064937;27;89742;-61
2024/01/23 10:50:47;;;;;;;3.63;1.83;;;;;;;;;;5064964;27;89038;-61
2024/01/23 10:53:16;;;;;;;2.37;1.70;;;;;;;;;;5065521;27;87290;-61
2024/01/23 10:55:44;;;;;;;5.20;1.50;;;;;;;;;;5058717;27;87586;-61
2024/01/23 10:58:20;;;;;;;3.03;1.73;;;;;;;;;;5065072;27;88418;-61
2024/01/23 11:00:49;;;;;;;5.10;2.00;;;;;;;;;;5064392;27;89047;-62
2024/01/23 11:03:19;;;;;;;2.63;1.60;;;;;;;;;;5064639;27;87472;-62
2024/01/23 11:05:48;;;;;;;3.20;1.47;;;;;;;;;;5065232;27;87455;-61
2024/01/23 11:08:17;;;;;;;1.90;1.63;;;;;;;;;;5061725;27;89817;-61
2024/01/23 11:10:46;;;;;;;3.80;1.90;;;;;;;;;;5055604;27;87955;-61
2024/01/23 11:13:17;;;;;;;3.07;1.57;;;;;;;;;;5051171;27;88823;-61
2024/01/23 11:15:46;;;;;;;2.30;1.53;;;;;;;;;;5048438;27;87414;-61
2024/01/23 11:18:28;;;;;;;3.67;1.63;;;;;;;;;;5055916;27;88845;-62
2024/01/23 11:21:13;;;;;;;10.33;4.80;;;;;;;;;;5048923;27;88061;-61
2024/01/23 11:23:43;;;;;;;29.67;14.77;;;;;;;;;;5055219;27;87449;-62
2024/01/23 11:26:15;;;;;;;38.13;22.10;;;;;;;;;;5061044;27;87600;-61
2024/01/23 11:28:44;;;;;;;23.10;13.87;;;;;;;;;;5060590;27;89685;-62
2024/01/23 11:31:17;;;;;;;21.80;10.23;;;;;;;;;;5061447;27;89278;-61
2024/01/23 11:33:47;;;;;;;13.00;8.67;;;;;;;;;;5057913;27;87714;-61
2024/01/23 11:36:22;;;;;;;10.87;7.47;;;;;;;;;;5064422;27;87377;-61
2024/01/23 11:38:51;;;;;;;8.50;6.60;;;;;;;;;;5063577;27;88790;-60
2024/01/23 11:41:22;;;;;;;14.97;7.17;;;;;;;;;;5056856;27;89339;-62
2024/01/23 11:43:51;;;;;;;15.10;6.17;;;;;;;;;;5052650;27;87521;-62
2024/01/23 11:46:19;;;;;;;11.77;6.73;;;;;;;;;;5055199;27;87732;-62
2024/01/23 11:48:49;;;;;;;8.93;4.93;;;;;;;;;;5048201;27;89594;-61
2024/01/23 11:51:18;;;;;;;5.93;4.47;;;;;;;;;;5045398;27;87562;-61
2024/01/23 11:53:47;;;;;;;6.73;3.57;;;;;;;;;;5052232;27;87583;-61
2024/01/23 11:56:16;;;;;;;8.53;4.77;;;;;;;;;;5043733;27;87575;-62
2024/01/23 11:58:44;;;;;;;6.17;3.37;;;;;;;;;;5047229;27;89605;-61
2024/01/23 12:01:14;;;;;;;6.73;3.60;;;;;;;;;;5043362;27;89119;-62
2024/01/23 12:03:50;;;;;;;3.40;3.00;;;;;;;;;;5058729;27;87669;-62
2024/01/23 12:06:19;;;;;;;9.83;6.47;;;;;;;;;;5047059;27;88732;-62
2024/01/23 12:08:48;;;;;;;36.87;20.20;;;;;;;;;;5058527;27;89752;-62
2024/01/23 12:11:18;;;;;;;39.30;24.63;;;;;;;;;;5043995;27;89058;-62
2024/01/23 12:13:47;;;;;;;36.20;20.03;;;;;;;;;;5045704;27;87522;-62
2024/01/23 12:16:16;;;;;;;28.00;16.27;;;;;;;;;;5062857;27;87626;-62
2024/01/23 12:18:45;;;;;;;27.00;15.43;;;;;;;;;;5061454;27;89616;-62
2024/01/23 12:21:15;;;;;;;19.80;12.47;;;;;;;;;;5057082;27;88992;-62
2024/01/23 12:23:43;;;;;;;17.07;11.87;;;;;;;;;;5060920;27;87511;-62
2024/01/23 12:26:12;;;;;;;17.23;10.63;;;;;;;;;;5063194;27;87448;-62
2024/01/23 12:28:41;;;;;;;15.57;9.77;;;;;;;;;;5057762;27;89583;-62
2024/01/23 12:31:14;;;;;;;15.23;10.07;;;;;;;;;;5055157;27;87445;-62
2024/01/23 12:33:42;;;;;;;14.13;9.40;;;;;;;;;;5060127;27;87325;-62
2024/01/23 12:36:16;;;;;;;14.13;8.20;;;;;;;;;;5054457;27;87639;-62
2024/01/23 12:38:47;;;;;;;15.43;8.33;;;;;;;;;;5063553;27;89691;-62
2024/01/23 12:41:15;;;;;;;11.17;6.57;;;;;;;;;;5047205;27;89292;-62
2024/01/23 12:43:44;;;;;;;15.80;6.97;;;;;;;;;;5050514;27;87955;-62
2024/01/23 12:46:15;;;;;;;10.47;6.47;;;;;;;;;;5051662;27;87612;-62
2024/01/23 12:48:44;;;;;;;12.13;6.13;;;;;;;;;;5042908;27;88199;-62
2024/01/23 12:51:16;;;;;;;10.80;5.60;;;;;;;;;;5052286;27;89210;-61
2024/01/23 12:53:46;;;;;;;9.43;5.87;;;;;;;;;;5053053;27;87487;-61
2024/01/23 12:56:15;;;;;;;6.93;4.50;;;;;;;;;;5047492;27;87172;-61
2024/01/23 12:58:43;;;;;;;9.27;4.43;;;;;;;;;;5061978;27;89725;-61
2024/01/23 13:01:12;;;;;;;7.47;4.47;;;;;;;;;;5063369;27;87328;-61
2024/01/23 13:03:40;;;;;;;6.03;4.30;;;;;;;;;;5063076;27;87326;-61
2024/01/23 13:06:09;;;;;;;8.77;4.00;;;;;;;;;;5062389;27;87668;-61
2024/01/23 13:08:38;;;;;;;4.47;3.90;;;;;;;;;;5062357;27;88558;-62
2024/01/23 13:11:07;;;;;;;9.00;4.00;;;;;;;;;;5049156;27;87950;-61
2024/01/23 13:13:37;;;;;;;7.37;3.37;;;;;;;;;;5061424;27;87564;-61
2024/01/23 13:16:06;;;;;;;6.10;3.20;;;;;;;;;;5063184;27;87569;-61
2024/01/23 13:18:34;;;;;;;4.93;3.07;;;;;;;;;;5062543;27;89733;-61
2024/01/23 13:21:03;;;;;;;6.60;3.07;;;;;;;;;;5062910;27;87370;-61
2024/01/23 13:23:31;;;;;;;6.33;3.23;;;;;;;;;;5062778;27;87275;-61
2024/01/23 13:26:00;;;;;;;3.10;2.43;;;;;;;;;;5063062;27;87338;-61
2024/01/23 13:28:29;;;;;;;4.13;2.90;;;;;;;;;;5059153;27;89303;-61
2024/01/23 13:31:04;;;;;;;4.20;2.73;;;;;;;;;;5061260;27;88283;-62
2024/01/23 13:33:34;;;;;;;24.27;16.10;;;;;;;;;;5057672;27;87439;-62
2024/01/23 13:36:07;;;;;;;29.73;19.47;;;;;;;;;;5051381;27;88066;-62
2024/01/23 13:38:37;;;;;;;21.27;13.97;;;;;;;;;;5048488;27;89680;-61
2024/01/23 13:41:17;;;;;;;16.17;11.13;;;;;;;;;;5057397;27;88393;-62
2024/01/23 13:43:47;;;;;;;11.73;8.43;;;;;;;;;;5058877;27;87500;-62
2024/01/23 13:46:17;;;;;;;15.03;8.47;;;;;;;;;;5050721;27;87718;-62
2024/01/23 13:48:48;;;;;;;15.27;8.60;;;;;;;;;;5062294;27;88736;-62
2024/01/23 13:51:16;;;;;;;10.03;6.67;;;;;;;;;;5059267;27;88831;-61
2024/01/23 13:53:45;;;;;;;9.50;6.93;;;;;;;;;;5062205;27;87402;-62
2024/01/23 13:56:13;;;;;;;9.60;6.73;;;;;;;;;;5061336;27;87523;-62
2024/01/23 13:58:43;;;;;;;11.37;5.73;;;;;;;;;;5061903;27;89955;-61
2024/01/23 14:01:15;;;;;;;12.87;5.73;;;;;;;;;;5054056;27;89268;-61
2024/01/23 14:03:43;;;;;;;9.00;4.67;;;;;;;;;;5059760;27;87667;-61
2024/01/23 14:06:12;;;;;;;6.03;4.47;;;;;;;;;;5053683;27;87689;-62
2024/01/23 14:08:42;;;;;;;5.27;4.27;;;;;;;;;;5061921;27;89838;-61
2024/01/23 14:11:13;;;;;;;8.33;4.87;;;;;;;;;;5057621;27;89156;-62
2024/01/23 14:13:43;;;;;;;9.80;4.90;;;;;;;;;;5053365;27;87389;-63
2024/01/23 14:16:13;;;;;;;6.43;3.93;;;;;;;;;;5062349;27;87528;-63
2024/01/23 14:18:43;;;;;;;6.20;3.63;;;;;;;;;;5061383;27;87473;-63
2024/01/23 14:21:12;;;;;;;6.30;4.43;;;;;;;;;;5061800;27;87475;-63
2024/01/23 14:23:42;;;;;;;6.63;3.70;;;;;;;;;;5045715;27;87404;-63
2024/01/23 14:26:10;;;;;;;7.13;4.30;;;;;;;;;;5061572;27;88854;-63
2024/01/23 14:28:39;;;;;;;7.00;3.23;;;;;;;;;;5057961;27;87394;-63
2024/01/23 14:31:08;;;;;;;8.47;3.57;;;;;;;;;;5072708;27;88856;-63
2024/01/23 14:33:38;;;;;;;6.90;3.53;;;;;;;;;;5061618;27;87467;-63
2024/01/23 14:36:09;;;;;;;5.40;3.03;;;;;;;;;;5059246;27;87556;-63
2024/01/23 14:38:37;;;;;;;6.53;3.40;;;;;;;;;;5055621;27;89711;-63
2024/01/23 14:41:07;;;;;;;6.93;3.43;;;;;;;;;;5057368;27;87944;-63
2024/01/23 14:43:36;;;;;;;8.67;3.77;;;;;;;;;;5056297;27;87528;-63
2024/01/23 14:46:05;;;;;;;3.57;2.90;;;;;;;;;;5061964;27;87721;-63
2024/01/23 14:48:35;;;;;;;9.63;3.60;;;;;;;;;;5058307;27;89659;-63
2024/01/23 14:51:06;;;;;;;6.20;3.17;;;;;;;;;;5059466;27;89058;-63
2024/01/23 14:53:34;;;;;;;5.47;3.77;;;;;;;;;;5059479;27;87296;-63